Aérodrome :
LOGIN :

S'inscrire | Disclaimer

   EN    FR    IT 

 










Légende :    VFR   VFR Marginal   IFR   IFR Intensif   IFR Très Intensif
Visi : 
Plafond : 
>= 8 km
>= 3000ft
5 à 8 km
1000 à 3000 ft
1500m à 5 km
500 à 1000 ft
800 à 1500m
200 à 500 ft
< 800m
< 200 ft
Symboles :   Orages  Brouillard  Fortes neiges  Fortes précipitations  Vent > 20 kt
SIGMETs :   Divers  Orages  Givrage  Turbulence  Onde Orograph.  Cendres Volcan.






- Altitude de l'aérodrome : 1079 ft


ETIK - Illesheim Air Base

DERNIER METAR :
  • 161756Z AUTO 25004KT 9999 CLR 11/10 A3005 RMK AO2 SLP175 T01130100 10168 20113 $

METARs EXPIRÉS :
  • 161656Z AUTO 27006KT 9999 BKN035 15/12 A3004 RMK AO2 SLP169 T01540116 $
  • 161601Z AUTO 31007KT 9999 SCT027 OVC035 16/13 A3003 RMK AO2 SLP165 $

TAF TAF ETIK
Valide du 16 à 14h jusqu'au 17 à 20h UTC


161401Z 1614/1720 VRB06KT 5000 RA BR BKN015 OVC035 QNH2997INS
BECMG 1616/1617 VRB06KT 8000 BR SCT010 BKN030 QNH2997INS
BECMG 1621/1622 VRB06KT 9999 NSW SCT030 QNH3003INS
TEMPO 1702/1707 4800 BR BKN015
BECMG 1711/1712 VRB06KT 9999 -RA OVC015 QNH3001INS TX17/1615Z TN12/1704Z



MET'MAP, la Météo Aéronautique d'un coup d'oeil ! - Copyright ORBIFLY Décembre 2007 - Disclaimer

ORBIFLY MET'MAP TEAM :

Programmation & Développement : Alexandra Zaïnal
Sur une idée originale de : Baudouin d'Aumeries
Assistance à la programmation : Marc-Olivier Méhu
Soutien technique & logistique : Manuel Goepfert

Contact : metmap@orbifly.com




SOURCES & CREDITS :

   NOAA